sensor_id;sensor_type;location;lat;lon;timestamp;P1;durP1;ratioP1;P2;durP2;ratioP2
33403;SDS011;19751;40.274;18.268;2022-12-07T00:01:05;14.63;;;8.75;;
33403;SDS011;19751;40.274;18.268;2022-12-07T00:03:31;25.50;;;9.68;;
33403;SDS011;19751;40.274;18.268;2022-12-07T00:06:00;23.90;;;8.20;;
33403;SDS011;19751;40.274;18.268;2022-12-07T00:08:26;19.95;;;8.15;;
33403;SDS011;19751;40.274;18.268;2022-12-07T00:10:52;18.23;;;7.32;;
33403;SDS011;19751;40.274;18.268;2022-12-07T00:13:18;24.30;;;7.68;;
33403;SDS011;19751;40.274;18.268;2022-12-07T00:15:43;19.58;;;7.10;;
33403;SDS011;19751;40.274;18.268;2022-12-07T00:18:09;24.15;;;7.50;;
33403;SDS011;19751;40.274;18.268;2022-12-07T00:20:35;17.45;;;7.28;;
33403;SDS011;19751;40.274;18.268;2022-12-07T00:23:00;15.40;;;7.70;;
33403;SDS011;19751;40.274;18.268;2022-12-07T00:25:26;23.25;;;7.47;;
33403;SDS011;19751;40.274;18.268;2022-12-07T00:27:52;19.10;;;6.90;;
33403;SDS011;19751;40.274;18.268;2022-12-07T00:30:18;15.48;;;6.78;;
33403;SDS011;19751;40.274;18.268;2022-12-07T00:32:44;18.67;;;8.23;;
33403;SDS011;19751;40.274;18.268;2022-12-07T00:35:09;15.95;;;8.52;;
33403;SDS011;19751;40.274;18.268;2022-12-07T00:37:35;20.42;;;7.47;;
33403;SDS011;19751;40.274;18.268;2022-12-07T00:40:00;19.38;;;7.20;;
33403;SDS011;19751;40.274;18.268;2022-12-07T00:42:26;12.32;;;7.13;;
33403;SDS011;19751;40.274;18.268;2022-12-07T00:44:51;17.55;;;7.03;;
33403;SDS011;19751;40.274;18.268;2022-12-07T00:47:17;12.73;;;6.50;;
33403;SDS011;19751;40.274;18.268;2022-12-07T00:49:42;19.58;;;7.57;;
33403;SDS011;19751;40.274;18.268;2022-12-07T00:52:08;16.70;;;5.93;;
33403;SDS011;19751;40.274;18.268;2022-12-07T00:54:33;19.20;;;6.18;;
33403;SDS011;19751;40.274;18.268;2022-12-07T00:56:59;15.98;;;4.90;;
33403;SDS011;19751;40.274;18.268;2022-12-07T00:59:24;14.32;;;5.75;;
33403;SDS011;19751;40.274;18.268;2022-12-07T01:01:50;14.82;;;5.18;;
33403;SDS011;19751;40.274;18.268;2022-12-07T01:04:15;17.67;;;6.20;;
33403;SDS011;19751;40.274;18.268;2022-12-07T01:06:41;11.60;;;5.78;;
33403;SDS011;19751;40.274;18.268;2022-12-07T01:09:06;15.20;;;6.47;;
33403;SDS011;19751;40.274;18.268;2022-12-07T01:11:32;14.07;;;6.18;;
33403;SDS011;19751;40.274;18.268;2022-12-07T01:13:58;17.25;;;6.32;;
33403;SDS011;19751;40.274;18.268;2022-12-07T01:16:26;18.65;;;6.50;;
33403;SDS011;19751;40.274;18.268;2022-12-07T01:18:53;10.02;;;5.13;;
33403;SDS011;19751;40.274;18.268;2022-12-07T01:21:21;18.55;;;5.25;;
33403;SDS011;19751;40.274;18.268;2022-12-07T01:23:56;16.60;;;6.95;;
33403;SDS011;19751;40.274;18.268;2022-12-07T01:26:23;14.63;;;5.93;;
33403;SDS011;19751;40.274;18.268;2022-12-07T01:28:49;12.38;;;5.30;;
33403;SDS011;19751;40.274;18.268;2022-12-07T01:31:16;10.18;;;4.75;;
33403;SDS011;19751;40.274;18.268;2022-12-07T01:33:45;15.27;;;6.53;;
33403;SDS011;19751;40.274;18.268;2022-12-07T01:38:46;14.57;;;6.43;;
33403;SDS011;19751;40.274;18.268;2022-12-07T01:41:13;14.60;;;5.18;;
33403;SDS011;19751;40.274;18.268;2022-12-07T01:49:35;13.23;;;4.75;;
33403;SDS011;19751;40.274;18.268;2022-12-07T01:54:42;13.18;;;4.75;;
33403;SDS011;19751;40.274;18.268;2022-12-07T01:57:10;19.70;;;5.47;;
33403;SDS011;19751;40.274;18.268;2022-12-07T01:59:38;17.85;;;5.22;;
33403;SDS011;19751;40.274;18.268;2022-12-07T02:02:04;14.13;;;4.20;;
33403;SDS011;19751;40.274;18.268;2022-12-07T02:04:35;13.05;;;5.35;;
33403;SDS011;19751;40.274;18.268;2022-12-07T02:07:01;12.75;;;4.72;;
33403;SDS011;19751;40.274;18.268;2022-12-07T02:09:29;11.80;;;4.38;;
33403;SDS011;19751;40.274;18.268;2022-12-07T02:11:55;17.23;;;5.05;;
33403;SDS011;19751;40.274;18.268;2022-12-07T02:14:21;17.88;;;4.63;;
33403;SDS011;19751;40.274;18.268;2022-12-07T02:16:49;10.50;;;4.93;;
33403;SDS011;19751;40.274;18.268;2022-12-07T02:25:18;11.35;;;3.63;;
33403;SDS011;19751;40.274;18.268;2022-12-07T02:28:12;17.02;;;4.10;;
33403;SDS011;19751;40.274;18.268;2022-12-07T02:30:53;11.45;;;3.63;;
33403;SDS011;19751;40.274;18.268;2022-12-07T02:33:37;19.83;;;4.28;;
33403;SDS011;19751;40.274;18.268;2022-12-07T02:38:39;18.90;;;6.53;;
33403;SDS011;19751;40.274;18.268;2022-12-07T02:41:13;11.32;;;3.55;;
33403;SDS011;19751;40.274;18.268;2022-12-07T02:43:46;14.82;;;3.28;;
33403;SDS011;19751;40.274;18.268;2022-12-07T02:46:17;10.77;;;3.65;;
33403;SDS011;19751;40.274;18.268;2022-12-07T02:48:59;12.07;;;3.70;;
33403;SDS011;19751;40.274;18.268;2022-12-07T02:51:25;16.83;;;4.13;;
33403;SDS011;19751;40.274;18.268;2022-12-07T02:53:55;9.60;;;3.05;;
33403;SDS011;19751;40.274;18.268;2022-12-07T02:57:10;8.50;;;2.92;;
33403;SDS011;19751;40.274;18.268;2022-12-07T03:04:47;12.85;;;4.10;;
33403;SDS011;19751;40.274;18.268;2022-12-07T03:07:36;10.68;;;3.50;;
33403;SDS011;19751;40.274;18.268;2022-12-07T03:13:37;11.38;;;2.83;;
33403;SDS011;19751;40.274;18.268;2022-12-07T03:18:41;18.25;;;3.47;;
33403;SDS011;19751;40.274;18.268;2022-12-07T03:21:34;12.20;;;3.03;;
33403;SDS011;19751;40.274;18.268;2022-12-07T03:24:05;16.70;;;3.10;;
33403;SDS011;19751;40.274;18.268;2022-12-07T03:26:35;10.05;;;3.63;;
33403;SDS011;19751;40.274;18.268;2022-12-07T03:29:08;9.23;;;3.30;;
33403;SDS011;19751;40.274;18.268;2022-12-07T03:31:48;13.98;;;3.70;;
33403;SDS011;19751;40.274;18.268;2022-12-07T03:36:58;15.63;;;3.70;;
33403;SDS011;19751;40.274;18.268;2022-12-07T03:41:57;10.43;;;2.95;;
33403;SDS011;19751;40.274;18.268;2022-12-07T03:44:25;10.68;;;3.38;;
33403;SDS011;19751;40.274;18.268;2022-12-07T03:50:11;14.32;;;3.15;;
33403;SDS011;19751;40.274;18.268;2022-12-07T03:55:31;13.70;;;3.17;;
33403;SDS011;19751;40.274;18.268;2022-12-07T03:58:02;14.70;;;3.55;;
33403;SDS011;19751;40.274;18.268;2022-12-07T04:00:34;15.70;;;2.72;;
33403;SDS011;19751;40.274;18.268;2022-12-07T04:03:00;6.70;;;2.35;;
33403;SDS011;19751;40.274;18.268;2022-12-07T04:05:25;11.75;;;3.00;;
33403;SDS011;19751;40.274;18.268;2022-12-07T04:07:51;10.15;;;3.45;;
33403;SDS011;19751;40.274;18.268;2022-12-07T04:10:17;11.45;;;3.15;;
33403;SDS011;19751;40.274;18.268;2022-12-07T04:12:43;11.50;;;3.60;;
33403;SDS011;19751;40.274;18.268;2022-12-07T04:15:09;11.65;;;2.13;;
33403;SDS011;19751;40.274;18.268;2022-12-07T04:17:34;8.10;;;3.25;;
33403;SDS011;19751;40.274;18.268;2022-12-07T04:20:00;14.77;;;2.58;;
33403;SDS011;19751;40.274;18.268;2022-12-07T04:22:26;17.42;;;3.13;;
33403;SDS011;19751;40.274;18.268;2022-12-07T04:24:52;16.25;;;4.90;;
33403;SDS011;19751;40.274;18.268;2022-12-07T04:27:17;10.00;;;3.30;;
33403;SDS011;19751;40.274;18.268;2022-12-07T04:29:43;8.65;;;2.00;;
33403;SDS011;19751;40.274;18.268;2022-12-07T04:32:08;13.32;;;2.80;;
33403;SDS011;19751;40.274;18.268;2022-12-07T04:34:34;19.98;;;3.92;;
33403;SDS011;19751;40.274;18.268;2022-12-07T04:37:00;13.30;;;2.17;;
33403;SDS011;19751;40.274;18.268;2022-12-07T04:39:27;10.30;;;2.10;;
33403;SDS011;19751;40.274;18.268;2022-12-07T04:41:54;10.85;;;2.00;;
33403;SDS011;19751;40.274;18.268;2022-12-07T04:44:21;10.75;;;3.28;;
33403;SDS011;19751;40.274;18.268;2022-12-07T04:46:47;16.98;;;4.53;;
33403;SDS011;19751;40.274;18.268;2022-12-07T04:49:14;18.05;;;4.38;;
33403;SDS011;19751;40.274;18.268;2022-12-07T04:51:40;10.20;;;2.60;;
33403;SDS011;19751;40.274;18.268;2022-12-07T04:54:06;7.22;;;1.80;;
33403;SDS011;19751;40.274;18.268;2022-12-07T04:56:32;13.70;;;3.47;;
33403;SDS011;19751;40.274;18.268;2022-12-07T04:59:00;13.25;;;2.60;;
33403;SDS011;19751;40.274;18.268;2022-12-07T05:01:26;14.70;;;2.72;;
33403;SDS011;19751;40.274;18.268;2022-12-07T05:03:51;7.20;;;2.53;;
33403;SDS011;19751;40.274;18.268;2022-12-07T05:06:17;8.48;;;2.45;;
33403;SDS011;19751;40.274;18.268;2022-12-07T05:08:43;6.45;;;1.95;;
33403;SDS011;19751;40.274;18.268;2022-12-07T05:11:09;8.70;;;2.58;;
33403;SDS011;19751;40.274;18.268;2022-12-07T05:13:55;10.43;;;3.67;;
33403;SDS011;19751;40.274;18.268;2022-12-07T05:16:20;7.80;;;1.67;;
33403;SDS011;19751;40.274;18.268;2022-12-07T05:18:46;8.38;;;1.63;;
33403;SDS011;19751;40.274;18.268;2022-12-07T05:21:11;6.45;;;2.58;;
33403;SDS011;19751;40.274;18.268;2022-12-07T05:23:37;8.88;;;2.75;;
33403;SDS011;19751;40.274;18.268;2022-12-07T05:26:02;15.05;;;3.78;;
33403;SDS011;19751;40.274;18.268;2022-12-07T05:28:28;10.40;;;2.42;;
33403;SDS011;19751;40.274;18.268;2022-12-07T05:30:53;8.88;;;2.60;;
33403;SDS011;19751;40.274;18.268;2022-12-07T05:33:19;13.60;;;2.40;;
33403;SDS011;19751;40.274;18.268;2022-12-07T05:35:44;9.98;;;2.17;;
33403;SDS011;19751;40.274;18.268;2022-12-07T05:38:10;10.05;;;2.33;;
33403;SDS011;19751;40.274;18.268;2022-12-07T05:40:36;16.38;;;2.65;;
33403;SDS011;19751;40.274;18.268;2022-12-07T05:43:02;10.88;;;2.33;;
33403;SDS011;19751;40.274;18.268;2022-12-07T05:45:27;12.07;;;2.53;;
33403;SDS011;19751;40.274;18.268;2022-12-07T05:47:53;8.73;;;2.22;;
33403;SDS011;19751;40.274;18.268;2022-12-07T05:50:18;11.40;;;2.85;;
33403;SDS011;19751;40.274;18.268;2022-12-07T05:52:44;12.18;;;2.65;;
33403;SDS011;19751;40.274;18.268;2022-12-07T05:55:11;9.35;;;2.80;;
33403;SDS011;19751;40.274;18.268;2022-12-07T05:57:36;16.35;;;4.65;;
33403;SDS011;19751;40.274;18.268;2022-12-07T06:00:02;8.32;;;2.67;;
33403;SDS011;19751;40.274;18.268;2022-12-07T06:02:29;5.45;;;2.78;;
33403;SDS011;19751;40.274;18.268;2022-12-07T06:04:54;9.13;;;1.80;;
33403;SDS011;19751;40.274;18.268;2022-12-07T06:07:20;17.77;;;3.67;;
33403;SDS011;19751;40.274;18.268;2022-12-07T06:09:46;16.15;;;3.42;;
33403;SDS011;19751;40.274;18.268;2022-12-07T06:12:11;8.80;;;2.42;;
33403;SDS011;19751;40.274;18.268;2022-12-07T06:14:56;12.27;;;2.25;;
33403;SDS011;19751;40.274;18.268;2022-12-07T06:17:22;11.77;;;4.13;;
33403;SDS011;19751;40.274;18.268;2022-12-07T06:19:47;10.20;;;3.25;;
33403;SDS011;19751;40.274;18.268;2022-12-07T06:22:13;15.63;;;3.25;;
33403;SDS011;19751;40.274;18.268;2022-12-07T06:24:41;7.10;;;3.25;;
33403;SDS011;19751;40.274;18.268;2022-12-07T06:27:06;11.60;;;3.92;;
33403;SDS011;19751;40.274;18.268;2022-12-07T06:29:32;6.93;;;2.67;;
33403;SDS011;19751;40.274;18.268;2022-12-07T06:31:58;9.63;;;4.13;;
33403;SDS011;19751;40.274;18.268;2022-12-07T06:34:24;9.20;;;3.40;;
33403;SDS011;19751;40.274;18.268;2022-12-07T06:36:50;16.55;;;3.80;;
33403;SDS011;19751;40.274;18.268;2022-12-07T06:39:19;14.23;;;4.47;;
33403;SDS011;19751;40.274;18.268;2022-12-07T06:41:45;8.85;;;3.75;;
33403;SDS011;19751;40.274;18.268;2022-12-07T06:44:10;10.43;;;4.07;;
33403;SDS011;19751;40.274;18.268;2022-12-07T06:46:36;12.48;;;4.78;;
33403;SDS011;19751;40.274;18.268;2022-12-07T06:49:02;17.45;;;5.90;;
33403;SDS011;19751;40.274;18.268;2022-12-07T06:51:29;17.95;;;5.07;;
33403;SDS011;19751;40.274;18.268;2022-12-07T06:53:56;14.60;;;3.75;;
33403;SDS011;19751;40.274;18.268;2022-12-07T06:56:22;10.48;;;4.00;;
33403;SDS011;19751;40.274;18.268;2022-12-07T06:58:47;12.90;;;4.53;;
33403;SDS011;19751;40.274;18.268;2022-12-07T07:01:14;11.98;;;3.55;;
33403;SDS011;19751;40.274;18.268;2022-12-07T07:03:41;17.98;;;4.18;;
33403;SDS011;19751;40.274;18.268;2022-12-07T07:06:08;25.52;;;7.00;;
33403;SDS011;19751;40.274;18.268;2022-12-07T07:08:34;22.63;;;8.88;;
33403;SDS011;19751;40.274;18.268;2022-12-07T07:11:00;24.08;;;7.03;;
33403;SDS011;19751;40.274;18.268;2022-12-07T07:13:26;24.70;;;6.97;;
33403;SDS011;19751;40.274;18.268;2022-12-07T07:15:53;24.88;;;6.30;;
33403;SDS011;19751;40.274;18.268;2022-12-07T07:18:19;18.90;;;5.57;;
33403;SDS011;19751;40.274;18.268;2022-12-07T07:20:44;18.05;;;4.03;;
33403;SDS011;19751;40.274;18.268;2022-12-07T07:23:10;20.70;;;4.50;;
33403;SDS011;19751;40.274;18.268;2022-12-07T07:25:35;9.05;;;3.65;;
33403;SDS011;19751;40.274;18.268;2022-12-07T07:28:02;11.55;;;4.70;;
33403;SDS011;19751;40.274;18.268;2022-12-07T07:30:28;18.70;;;4.97;;
33403;SDS011;19751;40.274;18.268;2022-12-07T07:32:57;13.77;;;4.22;;
33403;SDS011;19751;40.274;18.268;2022-12-07T07:35:26;14.45;;;4.82;;
33403;SDS011;19751;40.274;18.268;2022-12-07T07:37:52;15.43;;;7.60;;
33403;SDS011;19751;40.274;18.268;2022-12-07T07:40:18;23.92;;;7.65;;
33403;SDS011;19751;40.274;18.268;2022-12-07T07:42:43;14.57;;;4.75;;
33403;SDS011;19751;40.274;18.268;2022-12-07T07:45:11;11.15;;;4.53;;
33403;SDS011;19751;40.274;18.268;2022-12-07T07:47:37;19.77;;;3.92;;
33403;SDS011;19751;40.274;18.268;2022-12-07T07:50:03;12.43;;;2.78;;
33403;SDS011;19751;40.274;18.268;2022-12-07T07:52:28;9.55;;;2.58;;
33403;SDS011;19751;40.274;18.268;2022-12-07T07:54:54;14.07;;;3.75;;
33403;SDS011;19751;40.274;18.268;2022-12-07T07:57:19;16.55;;;4.38;;
33403;SDS011;19751;40.274;18.268;2022-12-07T07:59:45;27.50;;;4.30;;
33403;SDS011;19751;40.274;18.268;2022-12-07T08:02:14;12.10;;;3.10;;
33403;SDS011;19751;40.274;18.268;2022-12-07T08:04:41;9.27;;;1.80;;
33403;SDS011;19751;40.274;18.268;2022-12-07T08:07:07;10.90;;;3.08;;
33403;SDS011;19751;40.274;18.268;2022-12-07T08:09:33;13.18;;;4.65;;
33403;SDS011;19751;40.274;18.268;2022-12-07T08:11:59;18.75;;;3.42;;
33403;SDS011;19751;40.274;18.268;2022-12-07T08:14:25;20.15;;;3.95;;
33403;SDS011;19751;40.274;18.268;2022-12-07T08:16:52;19.73;;;5.32;;
33403;SDS011;19751;40.274;18.268;2022-12-07T08:19:18;9.48;;;3.17;;
33403;SDS011;19751;40.274;18.268;2022-12-07T08:21:43;11.40;;;4.45;;
33403;SDS011;19751;40.274;18.268;2022-12-07T08:24:09;9.77;;;2.35;;
33403;SDS011;19751;40.274;18.268;2022-12-07T08:26:34;14.70;;;2.40;;
33403;SDS011;19751;40.274;18.268;2022-12-07T08:29:00;19.75;;;3.75;;
33403;SDS011;19751;40.274;18.268;2022-12-07T08:31:25;10.10;;;3.05;;
33403;SDS011;19751;40.274;18.268;2022-12-07T08:33:52;13.60;;;3.95;;
33403;SDS011;19751;40.274;18.268;2022-12-07T08:36:18;12.27;;;3.30;;
33403;SDS011;19751;40.274;18.268;2022-12-07T08:38:44;14.25;;;3.17;;
33403;SDS011;19751;40.274;18.268;2022-12-07T08:41:10;11.98;;;2.50;;
33403;SDS011;19751;40.274;18.268;2022-12-07T08:43:35;16.08;;;3.25;;
33403;SDS011;19751;40.274;18.268;2022-12-07T08:48:26;10.00;;;2.50;;
33403;SDS011;19751;40.274;18.268;2022-12-07T08:50:52;19.45;;;2.83;;
33403;SDS011;19751;40.274;18.268;2022-12-07T08:53:18;12.18;;;2.70;;
33403;SDS011;19751;40.274;18.268;2022-12-07T08:55:47;12.90;;;2.08;;
33403;SDS011;19751;40.274;18.268;2022-12-07T08:58:13;9.30;;;2.35;;
33403;SDS011;19751;40.274;18.268;2022-12-07T09:00:39;17.15;;;2.35;;
33403;SDS011;19751;40.274;18.268;2022-12-07T09:03:04;9.90;;;2.38;;
33403;SDS011;19751;40.274;18.268;2022-12-07T09:05:30;22.42;;;2.53;;
33403;SDS011;19751;40.274;18.268;2022-12-07T09:07:59;13.15;;;2.58;;
33403;SDS011;19751;40.274;18.268;2022-12-07T09:10:26;16.00;;;1.98;;
33403;SDS011;19751;40.274;18.268;2022-12-07T09:12:52;11.40;;;2.33;;
33403;SDS011;19751;40.274;18.268;2022-12-07T09:15:18;16.60;;;4.45;;
33403;SDS011;19751;40.274;18.268;2022-12-07T09:17:43;17.33;;;2.40;;
33403;SDS011;19751;40.274;18.268;2022-12-07T09:20:09;20.33;;;4.82;;
33403;SDS011;19751;40.274;18.268;2022-12-07T09:22:35;13.48;;;3.05;;
33403;SDS011;19751;40.274;18.268;2022-12-07T09:25:01;14.35;;;3.35;;
33403;SDS011;19751;40.274;18.268;2022-12-07T09:27:27;24.33;;;3.28;;
33403;SDS011;19751;40.274;18.268;2022-12-07T09:29:53;10.15;;;2.40;;
33403;SDS011;19751;40.274;18.268;2022-12-07T09:32:18;14.63;;;2.90;;
33403;SDS011;19751;40.274;18.268;2022-12-07T09:34:44;13.77;;;3.15;;
33403;SDS011;19751;40.274;18.268;2022-12-07T09:37:10;19.67;;;2.92;;
33403;SDS011;19751;40.274;18.268;2022-12-07T09:39:39;16.45;;;2.50;;
33403;SDS011;19751;40.274;18.268;2022-12-07T09:42:05;8.32;;;1.88;;
33403;SDS011;19751;40.274;18.268;2022-12-07T09:44:32;14.35;;;2.60;;
33403;SDS011;19751;40.274;18.268;2022-12-07T09:46:57;11.70;;;2.83;;
33403;SDS011;19751;40.274;18.268;2022-12-07T09:49:25;19.08;;;3.50;;
33403;SDS011;19751;40.274;18.268;2022-12-07T09:52:01;8.98;;;2.80;;
33403;SDS011;19751;40.274;18.268;2022-12-07T09:54:34;11.00;;;2.40;;
33403;SDS011;19751;40.274;18.268;2022-12-07T09:57:02;21.15;;;5.70;;
33403;SDS011;19751;40.274;18.268;2022-12-07T09:59:28;21.23;;;7.22;;
33403;SDS011;19751;40.274;18.268;2022-12-07T10:01:54;16.70;;;5.45;;
33403;SDS011;19751;40.274;18.268;2022-12-07T10:04:29;11.07;;;1.98;;
33403;SDS011;19751;40.274;18.268;2022-12-07T10:06:55;10.48;;;3.00;;
33403;SDS011;19751;40.274;18.268;2022-12-07T10:09:21;11.85;;;2.35;;
33403;SDS011;19751;40.274;18.268;2022-12-07T10:12:20;9.95;;;2.28;;
33403;SDS011;19751;40.274;18.268;2022-12-07T10:14:40;13.48;;;1.92;;
33403;SDS011;19751;40.274;18.268;2022-12-07T10:25:28;8.95;;;2.42;;
33403;SDS011;19751;40.274;18.268;2022-12-07T10:30:33;8.75;;;1.65;;
33403;SDS011;19751;40.274;18.268;2022-12-07T10:33:22;10.52;;;3.35;;
33403;SDS011;19751;40.274;18.268;2022-12-07T10:35:52;15.10;;;3.65;;
33403;SDS011;19751;40.274;18.268;2022-12-07T10:38:17;12.38;;;2.55;;
33403;SDS011;19751;40.274;18.268;2022-12-07T10:40:43;12.70;;;3.58;;
33403;SDS011;19751;40.274;18.268;2022-12-07T10:48:28;15.45;;;6.50;;
33403;SDS011;19751;40.274;18.268;2022-12-07T10:51:08;12.38;;;3.58;;
33403;SDS011;19751;40.274;18.268;2022-12-07T10:56:14;13.25;;;4.53;;
33403;SDS011;19751;40.274;18.268;2022-12-07T11:07:47;18.27;;;4.80;;
33403;SDS011;19751;40.274;18.268;2022-12-07T11:18:45;10.75;;;2.92;;
33403;SDS011;19751;40.274;18.268;2022-12-07T11:21:48;6.13;;;2.08;;
33403;SDS011;19751;40.274;18.268;2022-12-07T11:30:20;9.18;;;2.13;;
33403;SDS011;19751;40.274;18.268;2022-12-07T11:32:53;12.35;;;2.35;;
33403;SDS011;19751;40.274;18.268;2022-12-07T11:37:59;8.32;;;2.25;;
33403;SDS011;19751;40.274;18.268;2022-12-07T11:40:33;10.23;;;2.42;;
33403;SDS011;19751;40.274;18.268;2022-12-07T11:43:06;18.52;;;3.42;;
33403;SDS011;19751;40.274;18.268;2022-12-07T11:45:43;11.70;;;2.38;;
33403;SDS011;19751;40.274;18.268;2022-12-07T11:48:14;13.98;;;2.72;;
33403;SDS011;19751;40.274;18.268;2022-12-07T11:50:59;13.80;;;4.45;;
33403;SDS011;19751;40.274;18.268;2022-12-07T11:53:27;17.67;;;7.20;;
33403;SDS011;19751;40.274;18.268;2022-12-07T11:56:09;19.73;;;6.75;;
33403;SDS011;19751;40.274;18.268;2022-12-07T12:06:39;20.95;;;8.45;;
33403;SDS011;19751;40.274;18.268;2022-12-07T12:09:16;20.17;;;7.50;;
33403;SDS011;19751;40.274;18.268;2022-12-07T12:14:30;14.85;;;6.07;;
33403;SDS011;19751;40.274;18.268;2022-12-07T12:22:40;23.63;;;13.23;;
33403;SDS011;19751;40.274;18.268;2022-12-07T12:25:20;20.75;;;10.90;;
33403;SDS011;19751;40.274;18.268;2022-12-07T12:27:50;31.02;;;22.50;;
33403;SDS011;19751;40.274;18.268;2022-12-07T12:30:50;23.70;;;16.00;;
33403;SDS011;19751;40.274;18.268;2022-12-07T12:33:28;28.65;;;15.02;;
33403;SDS011;19751;40.274;18.268;2022-12-07T12:39:07;14.50;;;5.47;;
33403;SDS011;19751;40.274;18.268;2022-12-07T12:50:15;19.63;;;5.63;;
33403;SDS011;19751;40.274;18.268;2022-12-07T12:57:35;32.88;;;14.05;;
33403;SDS011;19751;40.274;18.268;2022-12-07T13:00:23;17.90;;;7.85;;
33403;SDS011;19751;40.274;18.268;2022-12-07T13:02:53;24.27;;;13.52;;
33403;SDS011;19751;40.274;18.268;2022-12-07T13:05:21;24.20;;;10.27;;
33403;SDS011;19751;40.274;18.268;2022-12-07T13:10:42;19.42;;;6.40;;
33403;SDS011;19751;40.274;18.268;2022-12-07T13:18:39;17.23;;;9.32;;
33403;SDS011;19751;40.274;18.268;2022-12-07T13:29:06;8.30;;;3.25;;
33403;SDS011;19751;40.274;18.268;2022-12-07T13:31:51;25.08;;;6.80;;
33403;SDS011;19751;40.274;18.268;2022-12-07T13:34:35;9.77;;;4.78;;
33403;SDS011;19751;40.274;18.268;2022-12-07T13:42:45;20.40;;;13.95;;
33403;SDS011;19751;40.274;18.268;2022-12-07T13:45:20;18.27;;;7.97;;
33403;SDS011;19751;40.274;18.268;2022-12-07T13:48:10;15.38;;;7.07;;
33403;SDS011;19751;40.274;18.268;2022-12-07T13:50:51;13.95;;;6.93;;
33403;SDS011;19751;40.274;18.268;2022-12-07T13:53:18;17.52;;;7.13;;
33403;SDS011;19751;40.274;18.268;2022-12-07T13:55:45;25.90;;;11.63;;
33403;SDS011;19751;40.274;18.268;2022-12-07T13:58:12;33.83;;;18.40;;
33403;SDS011;19751;40.274;18.268;2022-12-07T14:00:39;29.40;;;14.73;;
33403;SDS011;19751;40.274;18.268;2022-12-07T14:05:37;24.50;;;12.88;;
33403;SDS011;19751;40.274;18.268;2022-12-07T14:08:05;22.50;;;7.90;;
33403;SDS011;19751;40.274;18.268;2022-12-07T14:16:01;21.60;;;7.28;;
33403;SDS011;19751;40.274;18.268;2022-12-07T14:21:05;18.65;;;5.40;;
33403;SDS011;19751;40.274;18.268;2022-12-07T14:23:42;16.00;;;6.13;;
33403;SDS011;19751;40.274;18.268;2022-12-07T14:26:11;19.63;;;8.63;;
33403;SDS011;19751;40.274;18.268;2022-12-07T14:28:38;20.00;;;8.95;;
33403;SDS011;19751;40.274;18.268;2022-12-07T14:31:04;26.30;;;13.13;;
33403;SDS011;19751;40.274;18.268;2022-12-07T14:36:04;15.73;;;6.85;;
33403;SDS011;19751;40.274;18.268;2022-12-07T14:38:29;15.25;;;6.03;;
33403;SDS011;19751;40.274;18.268;2022-12-07T14:40:55;17.67;;;7.22;;
33403;SDS011;19751;40.274;18.268;2022-12-07T14:43:45;16.48;;;7.32;;
33403;SDS011;19751;40.274;18.268;2022-12-07T14:46:11;24.38;;;9.98;;
33403;SDS011;19751;40.274;18.268;2022-12-07T14:48:36;20.10;;;10.20;;
33403;SDS011;19751;40.274;18.268;2022-12-07T14:51:02;35.53;;;18.85;;
33403;SDS011;19751;40.274;18.268;2022-12-07T14:53:29;27.23;;;17.17;;
33403;SDS011;19751;40.274;18.268;2022-12-07T14:55:58;34.83;;;17.63;;
33403;SDS011;19751;40.274;18.268;2022-12-07T14:58:24;33.72;;;19.35;;
33403;SDS011;19751;40.274;18.268;2022-12-07T15:00:49;46.25;;;25.60;;
33403;SDS011;19751;40.274;18.268;2022-12-07T15:03:15;61.05;;;34.75;;
33403;SDS011;19751;40.274;18.268;2022-12-07T15:05:41;53.88;;;30.13;;
33403;SDS011;19751;40.274;18.268;2022-12-07T15:08:08;45.67;;;27.25;;
33403;SDS011;19751;40.274;18.268;2022-12-07T15:10:35;27.33;;;18.25;;
33403;SDS011;19751;40.274;18.268;2022-12-07T15:13:03;20.80;;;12.68;;
33403;SDS011;19751;40.274;18.268;2022-12-07T15:15:48;19.40;;;11.15;;
33403;SDS011;19751;40.274;18.268;2022-12-07T15:18:15;19.05;;;11.20;;
33403;SDS011;19751;40.274;18.268;2022-12-07T15:20:41;17.10;;;9.02;;
33403;SDS011;19751;40.274;18.268;2022-12-07T15:23:07;20.95;;;10.45;;
33403;SDS011;19751;40.274;18.268;2022-12-07T15:25:32;18.17;;;11.48;;
33403;SDS011;19751;40.274;18.268;2022-12-07T15:27:58;21.83;;;11.77;;
33403;SDS011;19751;40.274;18.268;2022-12-07T15:30:25;23.67;;;14.70;;
33403;SDS011;19751;40.274;18.268;2022-12-07T15:32:51;63.53;;;36.53;;
33403;SDS011;19751;40.274;18.268;2022-12-07T15:35:18;54.90;;;32.40;;
33403;SDS011;19751;40.274;18.268;2022-12-07T15:37:44;40.75;;;24.38;;
33403;SDS011;19751;40.274;18.268;2022-12-07T15:40:10;36.67;;;22.00;;
33403;SDS011;19751;40.274;18.268;2022-12-07T15:42:36;42.22;;;22.67;;
33403;SDS011;19751;40.274;18.268;2022-12-07T15:45:02;31.35;;;18.90;;
33403;SDS011;19751;40.274;18.268;2022-12-07T15:47:30;27.20;;;16.42;;
33403;SDS011;19751;40.274;18.268;2022-12-07T15:49:56;24.90;;;14.57;;
33403;SDS011;19751;40.274;18.268;2022-12-07T15:52:22;23.08;;;14.90;;
33403;SDS011;19751;40.274;18.268;2022-12-07T15:54:48;26.38;;;15.95;;
33403;SDS011;19751;40.274;18.268;2022-12-07T15:57:14;26.80;;;17.52;;
33403;SDS011;19751;40.274;18.268;2022-12-07T15:59:39;23.63;;;16.40;;
33403;SDS011;19751;40.274;18.268;2022-12-07T16:02:05;28.13;;;16.00;;
33403;SDS011;19751;40.274;18.268;2022-12-07T16:04:30;34.45;;;21.08;;
33403;SDS011;19751;40.274;18.268;2022-12-07T16:06:56;38.75;;;26.10;;
33403;SDS011;19751;40.274;18.268;2022-12-07T16:09:22;43.88;;;27.15;;
33403;SDS011;19751;40.274;18.268;2022-12-07T16:11:48;36.42;;;22.05;;
33403;SDS011;19751;40.274;18.268;2022-12-07T16:14:15;33.30;;;19.80;;
33403;SDS011;19751;40.274;18.268;2022-12-07T16:16:40;27.27;;;17.67;;
33403;SDS011;19751;40.274;18.268;2022-12-07T16:19:06;34.95;;;19.80;;
33403;SDS011;19751;40.274;18.268;2022-12-07T16:21:33;36.90;;;21.55;;
33403;SDS011;19751;40.274;18.268;2022-12-07T16:24:00;48.97;;;26.80;;
33403;SDS011;19751;40.274;18.268;2022-12-07T16:26:26;35.92;;;22.50;;
33403;SDS011;19751;40.274;18.268;2022-12-07T16:28:52;23.40;;;14.93;;
33403;SDS011;19751;40.274;18.268;2022-12-07T16:31:19;20.23;;;12.93;;
33403;SDS011;19751;40.274;18.268;2022-12-07T16:33:47;27.90;;;17.05;;
33403;SDS011;19751;40.274;18.268;2022-12-07T16:36:14;26.85;;;15.98;;
33403;SDS011;19751;40.274;18.268;2022-12-07T16:38:41;25.42;;;15.43;;
33403;SDS011;19751;40.274;18.268;2022-12-07T16:41:08;25.92;;;14.88;;
33403;SDS011;19751;40.274;18.268;2022-12-07T16:43:35;22.27;;;13.85;;
33403;SDS011;19751;40.274;18.268;2022-12-07T16:46:01;26.77;;;16.52;;
33403;SDS011;19751;40.274;18.268;2022-12-07T16:48:28;37.60;;;21.90;;
33403;SDS011;19751;40.274;18.268;2022-12-07T16:50:53;31.25;;;17.92;;
33403;SDS011;19751;40.274;18.268;2022-12-07T16:53:19;29.73;;;18.02;;
33403;SDS011;19751;40.274;18.268;2022-12-07T16:55:46;23.73;;;16.25;;
33403;SDS011;19751;40.274;18.268;2022-12-07T16:58:14;29.73;;;16.85;;
33403;SDS011;19751;40.274;18.268;2022-12-07T17:00:41;25.30;;;16.40;;
33403;SDS011;19751;40.274;18.268;2022-12-07T17:03:07;26.63;;;16.02;;
33403;SDS011;19751;40.274;18.268;2022-12-07T17:05:37;29.38;;;17.85;;